createdAt,value
2022-11-27T00:04:38.827Z,13.77
2022-11-27T00:09:41.607Z,8.73
2022-11-27T00:14:44.630Z,6.93
2022-11-27T00:19:47.302Z,5.93
2022-11-27T00:24:50.338Z,6.95
2022-11-27T00:29:53.063Z,7.00
2022-11-27T00:34:55.702Z,7.75
2022-11-27T00:39:58.305Z,9.60
2022-11-27T00:45:01.000Z,8.32
2022-11-27T00:50:04.718Z,7.70
2022-11-27T00:55:08.000Z,5.38
2022-11-27T01:00:11.249Z,6.55
2022-11-27T01:05:13.984Z,4.30
2022-11-27T01:10:16.661Z,4.75
2022-11-27T01:15:19.345Z,4.78
2022-11-27T01:20:21.983Z,7.03
2022-11-27T01:25:27.093Z,1.60
2022-11-27T01:30:29.871Z,5.97
2022-11-27T01:35:33.774Z,8.05
2022-11-27T01:40:36.739Z,8.10
2022-11-27T01:45:39.427Z,6.20
2022-11-27T01:50:42.332Z,5.80
2022-11-27T01:55:48.319Z,12.70
2022-11-27T02:00:51.217Z,5.78
2022-11-27T02:05:53.906Z,5.20
2022-11-27T02:11:05.493Z,6.40
2022-11-27T02:16:17.747Z,4.15
2022-11-27T02:21:38.842Z,8.63
2022-11-27T02:26:47.653Z,7.20
2022-11-27T02:31:59.506Z,7.20
2022-11-27T02:37:19.144Z,3.85
2022-11-27T02:42:22.165Z,2.83
2022-11-27T02:47:25.003Z,8.10
2022-11-27T02:52:28.787Z,9.43
2022-11-27T02:57:31.912Z,8.25
2022-11-27T03:02:37.765Z,11.50
2022-11-27T03:07:44.583Z,12.88
2022-11-27T03:12:48.894Z,5.50
2022-11-27T03:18:01.510Z,8.35
2022-11-27T03:23:04.227Z,3.85
2022-11-27T03:28:09.043Z,7.35
2022-11-27T03:33:11.922Z,8.00
2022-11-27T03:38:14.544Z,6.38
2022-11-27T03:43:24.822Z,6.45
2022-11-27T03:48:51.929Z,1.42
2022-11-27T03:54:03.606Z,8.38
2022-11-27T03:59:12.760Z,6.72
2022-11-27T04:04:15.791Z,9.90
2022-11-27T04:09:18.539Z,10.63
2022-11-27T04:14:21.293Z,2.97
2022-11-27T04:19:23.987Z,8.25
2022-11-27T04:24:26.667Z,5.13
2022-11-27T04:29:29.447Z,4.50
2022-11-27T04:34:33.179Z,9.23
2022-11-27T04:39:35.815Z,4.47
2022-11-27T04:44:39.089Z,5.28
2022-11-27T04:49:42.048Z,4.55
2022-11-27T04:54:44.743Z,8.00
2022-11-27T04:59:47.435Z,8.20
2022-11-27T05:04:50.146Z,5.13
2022-11-27T05:09:52.881Z,5.22
2022-11-27T05:14:55.521Z,7.88
2022-11-27T05:19:58.203Z,7.10
2022-11-27T05:25:00.923Z,2.80
2022-11-27T05:30:06.122Z,6.30
2022-11-27T05:35:09.284Z,10.05
2022-11-27T05:40:12.235Z,4.93
2022-11-27T05:45:15.595Z,7.65
2022-11-27T05:50:18.500Z,2.63
2022-11-27T05:55:21.243Z,6.15
2022-11-27T06:00:24.043Z,8.32
2022-11-27T06:05:26.781Z,7.55
2022-11-27T06:10:29.643Z,8.82
2022-11-27T06:15:32.345Z,8.57
2022-11-27T06:20:36.656Z,8.32
2022-11-27T06:25:42.404Z,9.00
2022-11-27T06:30:45.167Z,6.57
2022-11-27T06:35:47.959Z,4.80
2022-11-27T06:40:50.723Z,6.20
2022-11-27T06:45:58.049Z,9.40
2022-11-27T06:51:05.911Z,7.63
2022-11-27T06:56:11.414Z,8.73
2022-11-27T07:01:17.374Z,10.70
2022-11-27T07:06:22.288Z,6.70
2022-11-27T07:11:27.511Z,4.78
2022-11-27T07:16:32.705Z,4.78
2022-11-27T07:21:37.696Z,5.45
2022-11-27T07:26:40.813Z,7.60
2022-11-27T07:31:43.502Z,7.40
2022-11-27T07:36:46.321Z,7.32
2022-11-27T07:41:48.929Z,5.10
2022-11-27T07:46:51.619Z,3.72
2022-11-27T07:51:54.281Z,10.52
2022-11-27T07:56:57.020Z,7.35
2022-11-27T08:01:59.710Z,2.58
2022-11-27T08:07:02.453Z,5.53
2022-11-27T08:12:05.478Z,7.78
2022-11-27T08:17:08.113Z,5.25
2022-11-27T08:22:16.465Z,6.15
2022-11-27T08:27:19.181Z,6.38
2022-11-27T08:32:21.914Z,12.10
2022-11-27T08:37:24.719Z,6.68
2022-11-27T08:42:27.372Z,6.15
2022-11-27T08:47:30.071Z,8.25
2022-11-27T08:52:33.145Z,8.40
2022-11-27T08:57:36.630Z,8.43
2022-11-27T09:02:39.501Z,3.60
2022-11-27T09:07:42.295Z,10.55
2022-11-27T09:12:45.071Z,9.25
2022-11-27T09:17:47.784Z,10.43
2022-11-27T09:22:50.492Z,11.48
2022-11-27T09:27:53.301Z,8.93
2022-11-27T09:32:56.136Z,10.25
2022-11-27T09:37:59.330Z,9.82
2022-11-27T09:43:10.091Z,8.38
2022-11-27T09:53:28.531Z,8.17
2022-11-27T09:58:39.626Z,10.10
2022-11-27T10:03:43.649Z,13.38
2022-11-27T10:08:52.203Z,11.88
2022-11-27T10:14:22.863Z,11.70
2022-11-27T10:20:16.871Z,7.80
2022-11-27T10:25:30.321Z,10.48
2022-11-27T10:30:33.897Z,9.48
2022-11-27T10:35:36.624Z,19.33
2022-11-27T10:41:34.385Z,16.52
2022-11-27T10:46:38.573Z,16.85
2022-11-27T10:51:42.016Z,16.58
2022-11-27T10:57:01.468Z,15.65
2022-11-27T11:02:05.933Z,19.73
2022-11-27T11:07:26.736Z,16.77
2022-11-27T11:12:29.423Z,11.30
2022-11-27T11:17:38.646Z,18.38
2022-11-27T11:22:46.677Z,14.93
2022-11-27T11:27:50.687Z,14.13
2022-11-27T11:33:08.432Z,17.38
2022-11-27T11:38:19.032Z,20.00
2022-11-27T11:48:31.964Z,12.10
2022-11-27T11:53:47.248Z,14.80
2022-11-27T11:59:03.356Z,14.73
2022-11-27T12:04:30.860Z,19.88
2022-11-27T12:10:04.206Z,22.73
2022-11-27T12:15:31.415Z,14.38
2022-11-27T12:20:37.164Z,14.85
2022-11-27T12:25:56.989Z,21.15
2022-11-27T12:31:30.510Z,14.23
2022-11-27T12:37:19.333Z,18.85
2022-11-27T12:42:29.845Z,21.23
2022-11-27T12:53:16.732Z,18.50
2022-11-27T12:58:28.457Z,25.15
2022-11-27T13:03:54.180Z,27.67
2022-11-27T13:09:01.687Z,18.85
2022-11-27T13:14:17.930Z,14.30
2022-11-27T13:19:33.786Z,18.83
2022-11-27T13:24:36.626Z,17.73
2022-11-27T13:29:53.507Z,21.77
2022-11-27T13:34:59.303Z,14.27
2022-11-27T13:40:21.602Z,18.15
2022-11-27T13:45:29.812Z,18.65
2022-11-27T13:50:43.710Z,19.40
2022-11-27T13:55:54.962Z,13.60
2022-11-27T14:00:58.174Z,21.33
2022-11-27T14:06:00.923Z,10.57
2022-11-27T14:11:09.157Z,19.88
2022-11-27T14:16:28.550Z,21.60
2022-11-27T14:21:39.619Z,20.48
2022-11-27T14:26:42.418Z,19.02
2022-11-27T14:31:45.163Z,20.38
2022-11-27T14:36:52.859Z,20.00
2022-11-27T14:42:18.266Z,14.13
2022-11-27T14:47:23.170Z,19.48
2022-11-27T14:52:26.050Z,18.48
2022-11-27T14:57:29.672Z,19.08
2022-11-27T15:02:32.848Z,18.17
2022-11-27T15:07:45.240Z,20.98
2022-11-27T15:12:49.932Z,17.85
2022-11-27T15:18:01.826Z,19.08
2022-11-27T15:23:05.152Z,23.92
2022-11-27T15:28:30.778Z,20.17
2022-11-27T15:33:34.392Z,25.67
2022-11-27T15:38:37.224Z,12.73
2022-11-27T15:43:39.835Z,23.27
2022-11-27T15:48:42.511Z,15.32
2022-11-27T15:53:45.540Z,22.73
2022-11-27T15:58:48.326Z,9.95
2022-11-27T16:03:50.959Z,16.33
2022-11-27T16:08:57.045Z,16.73
2022-11-27T16:13:59.815Z,23.67
2022-11-27T16:19:04.358Z,18.42
2022-11-27T16:24:08.427Z,22.38
2022-11-27T16:29:11.360Z,20.77
2022-11-27T16:34:15.664Z,17.02
2022-11-27T16:39:18.737Z,17.77
2022-11-27T16:44:21.431Z,17.40
2022-11-27T16:49:26.424Z,20.58
2022-11-27T16:54:29.207Z,5.95
2022-11-27T16:59:32.426Z,21.15
2022-11-27T17:04:35.610Z,20.50
2022-11-27T17:09:39.028Z,14.68
2022-11-27T17:14:43.543Z,23.85
2022-11-27T17:19:49.414Z,20.02
2022-11-27T17:24:55.637Z,13.50
2022-11-27T17:29:58.292Z,21.17
2022-11-27T17:35:01.340Z,16.00
2022-11-27T17:40:05.780Z,22.23
2022-11-27T17:45:08.885Z,21.45
2022-11-27T17:50:11.832Z,18.10
2022-11-27T17:55:14.571Z,23.92
2022-11-27T18:00:19.095Z,19.65
2022-11-27T18:05:21.777Z,19.00
2022-11-27T18:10:24.558Z,16.60
2022-11-27T18:15:28.206Z,17.15
2022-11-27T18:20:31.603Z,10.43
2022-11-27T18:25:34.409Z,16.10
2022-11-27T18:30:37.075Z,7.72
2022-11-27T18:35:43.327Z,10.40
2022-11-27T18:40:46.459Z,18.85
2022-11-27T18:45:49.064Z,16.17
2022-11-27T18:50:52.227Z,14.35
2022-11-27T18:56:01.347Z,14.32
2022-11-27T19:01:10.224Z,12.38
2022-11-27T19:06:15.276Z,22.27
2022-11-27T19:11:20.777Z,16.88
2022-11-27T19:16:26.727Z,15.73
2022-11-27T19:21:30.795Z,19.63
2022-11-27T19:26:35.399Z,18.85
2022-11-27T19:31:40.341Z,18.02
2022-11-27T19:36:44.482Z,18.42
2022-11-27T19:41:47.951Z,15.93
2022-11-27T19:46:50.684Z,14.57
2022-11-27T19:51:53.739Z,15.88
2022-11-27T19:56:56.536Z,18.65
2022-11-27T20:01:59.341Z,16.48
2022-11-27T20:07:04.310Z,11.52
2022-11-27T20:12:06.978Z,19.48
2022-11-27T20:17:10.150Z,14.43
2022-11-27T20:22:13.305Z,15.48
2022-11-27T20:27:16.194Z,14.00
2022-11-27T20:32:18.858Z,13.85
2022-11-27T20:37:21.793Z,17.95
2022-11-27T20:42:24.861Z,16.98
2022-11-27T20:47:28.692Z,5.93
2022-11-27T20:52:31.586Z,18.88
2022-11-27T20:57:35.092Z,14.68
2022-11-27T21:02:43.417Z,9.52
2022-11-27T21:07:46.337Z,12.55
2022-11-27T21:12:49.188Z,6.30
2022-11-27T21:17:52.420Z,19.67
2022-11-27T21:22:55.220Z,19.83
2022-11-27T21:27:59.552Z,16.13
2022-11-27T21:33:03.739Z,14.07
2022-11-27T21:38:06.494Z,15.95
2022-11-27T21:43:09.148Z,12.32
2022-11-27T21:48:14.765Z,16.60
2022-11-27T21:53:17.421Z,8.48
2022-11-27T21:58:20.071Z,16.75
2022-11-27T22:03:23.000Z,11.65
2022-11-27T22:08:25.986Z,14.65
2022-11-27T22:13:30.450Z,13.15
2022-11-27T22:18:33.037Z,13.88
2022-11-27T22:23:36.295Z,13.52
2022-11-27T22:28:39.476Z,14.32
2022-11-27T22:33:42.681Z,12.80
2022-11-27T22:38:46.314Z,13.23
2022-11-27T22:43:50.175Z,14.15
2022-11-27T22:48:58.522Z,12.52
2022-11-27T22:54:02.401Z,13.32
2022-11-27T22:59:30.983Z,4.43
2022-11-27T23:04:29.513Z,15.38
2022-11-27T23:09:34.320Z,9.65
2022-11-27T23:14:37.108Z,8.70
2022-11-27T23:19:39.767Z,15.18
2022-11-27T23:24:42.720Z,13.05
2022-11-27T23:29:45.688Z,10.20
2022-11-27T23:34:48.377Z,16.02
2022-11-27T23:39:51.202Z,14.57
2022-11-27T23:44:53.914Z,12.35
2022-11-27T23:49:56.612Z,12.93
2022-11-27T23:54:59.278Z,8.50
